createdAt,value
2018-08-03T00:02:10.855Z,101958.36
2018-08-03T00:05:35.547Z,101961.59
2018-08-03T00:09:02.484Z,101961.39
2018-08-03T00:12:27.102Z,101955.95
2018-08-03T00:15:51.579Z,101954.19
2018-08-03T00:19:16.044Z,101950.61
2018-08-03T00:22:40.491Z,101944.37
2018-08-03T00:26:04.971Z,101946.95
2018-08-03T00:29:29.411Z,101946.56
2018-08-03T00:32:53.895Z,101947.00
2018-08-03T00:36:18.366Z,101945.66
2018-08-03T00:39:42.814Z,101952.03
2018-08-03T00:43:07.423Z,101944.41
2018-08-03T00:46:31.860Z,101936.30
2018-08-03T00:49:56.364Z,101941.30
2018-08-03T00:53:20.499Z,101937.28
2018-08-03T00:56:44.993Z,101937.59
2018-08-03T01:00:09.409Z,101937.48
2018-08-03T01:03:33.887Z,101942.54
2018-08-03T01:06:58.402Z,101949.92
2018-08-03T01:10:22.832Z,101944.72
2018-08-03T01:13:47.278Z,101942.92
2018-08-03T01:17:11.698Z,101944.53
2018-08-03T01:20:36.124Z,101939.01
2018-08-03T01:24:00.606Z,101934.27
2018-08-03T01:27:25.058Z,101942.28
2018-08-03T01:30:49.696Z,101942.20
2018-08-03T01:34:14.208Z,101928.22
2018-08-03T01:37:38.671Z,101927.25
2018-08-03T01:41:03.345Z,101929.00
2018-08-03T01:44:27.814Z,101934.56
2018-08-03T01:47:52.266Z,101923.14
2018-08-03T01:51:16.424Z,101928.52
2018-08-03T01:54:40.851Z,101930.54
2018-08-03T01:58:05.295Z,101929.67
2018-08-03T02:01:29.726Z,101925.27
2018-08-03T02:04:54.163Z,101929.22
2018-08-03T02:08:18.799Z,101928.87
2018-08-03T02:11:43.256Z,101927.59
2018-08-03T02:15:08.210Z,101924.50
2018-08-03T02:18:32.722Z,101917.78
2018-08-03T02:21:57.262Z,101925.06
2018-08-03T02:25:21.665Z,101924.93
2018-08-03T02:28:46.080Z,101926.28
2018-08-03T02:32:11.134Z,101926.20
2018-08-03T02:35:35.595Z,101931.87
2018-08-03T02:39:00.027Z,101929.77
2018-08-03T02:42:24.481Z,101929.31
2018-08-03T02:45:48.953Z,101928.67
2018-08-03T02:49:13.416Z,101930.30
2018-08-03T02:52:37.871Z,101942.23
2018-08-03T02:56:02.314Z,101937.14
2018-08-03T02:59:26.749Z,101942.41
2018-08-03T03:02:51.189Z,101945.33
2018-08-03T03:06:15.609Z,101946.98
2018-08-03T03:09:40.061Z,101941.55
2018-08-03T03:13:04.475Z,101935.30
2018-08-03T03:16:28.876Z,101941.08
2018-08-03T03:19:53.451Z,101941.08
2018-08-03T03:23:17.911Z,101939.91
2018-08-03T03:26:42.743Z,101938.14
2018-08-03T03:30:08.845Z,101942.54
2018-08-03T03:33:33.316Z,101944.97
2018-08-03T03:36:57.743Z,101944.54
2018-08-03T03:40:22.302Z,101945.31
2018-08-03T03:43:46.716Z,101942.69
2018-08-03T03:47:11.162Z,101946.69
2018-08-03T03:50:35.669Z,101945.16
2018-08-03T03:54:00.260Z,101940.04
2018-08-03T03:57:24.692Z,101943.45
2018-08-03T04:00:49.329Z,101938.05
2018-08-03T04:04:13.745Z,101937.22
2018-08-03T04:07:38.175Z,101938.21
2018-08-03T04:11:02.773Z,101944.72
2018-08-03T04:14:27.147Z,101941.92
2018-08-03T04:17:51.556Z,101936.08
2018-08-03T04:21:15.976Z,101938.47
2018-08-03T04:24:40.400Z,101926.14
2018-08-03T04:28:04.889Z,101925.95
2018-08-03T04:31:29.317Z,101927.91
2018-08-03T04:34:53.729Z,101933.96
2018-08-03T04:38:18.161Z,101940.47
2018-08-03T04:41:42.570Z,101940.55
2018-08-03T04:45:07.058Z,101943.20
2018-08-03T04:48:31.547Z,101941.27
2018-08-03T04:51:55.955Z,101939.30
2018-08-03T04:55:20.386Z,101950.02
2018-08-03T04:58:44.833Z,101952.61
2018-08-03T05:02:10.756Z,101958.45
2018-08-03T05:05:35.265Z,101953.59
2018-08-03T05:08:59.704Z,101958.87
2018-08-03T05:12:24.171Z,101955.37
2018-08-03T05:15:48.693Z,101961.57
2018-08-03T05:19:13.102Z,101962.55
2018-08-03T05:22:37.604Z,101961.77
2018-08-03T05:26:02.064Z,101963.20
2018-08-03T05:29:26.458Z,101960.45
2018-08-03T05:32:50.877Z,101958.51
2018-08-03T05:36:15.447Z,101956.59
2018-08-03T05:39:39.870Z,101954.98
2018-08-03T05:43:04.335Z,101955.28
2018-08-03T05:46:28.767Z,101954.61
2018-08-03T05:49:53.298Z,101960.25
2018-08-03T05:53:17.710Z,101954.69
2018-08-03T05:56:42.147Z,101958.86
2018-08-03T06:00:07.195Z,101957.09
2018-08-03T06:03:31.627Z,101955.78
2018-08-03T06:06:56.041Z,101964.98
2018-08-03T06:10:20.496Z,101959.61
2018-08-03T06:13:44.950Z,101960.03
2018-08-03T06:17:09.450Z,101962.89
2018-08-03T06:20:33.885Z,101956.73
2018-08-03T06:23:58.386Z,101961.47
2018-08-03T06:27:22.952Z,101963.74
2018-08-03T06:30:47.492Z,101963.12
2018-08-03T06:34:11.987Z,101961.63
2018-08-03T06:37:36.810Z,101952.84
2018-08-03T06:41:01.320Z,101959.06
2018-08-03T06:44:25.710Z,101963.92
2018-08-03T06:47:50.104Z,101964.48
2018-08-03T06:51:14.515Z,101967.06
2018-08-03T06:54:38.920Z,101968.09
2018-08-03T06:58:03.371Z,101964.99
2018-08-03T07:01:27.799Z,101958.58
2018-08-03T07:04:52.386Z,101973.09
2018-08-03T07:08:16.817Z,101965.31
2018-08-03T07:11:41.330Z,101965.28
2018-08-03T07:15:06.137Z,101969.88
2018-08-03T07:18:30.602Z,101964.83
2018-08-03T07:21:55.079Z,101968.61
2018-08-03T07:25:21.302Z,101966.70
2018-08-03T07:28:45.900Z,101961.63
2018-08-03T07:32:10.317Z,101963.88
2018-08-03T07:35:34.754Z,101958.87
2018-08-03T07:38:59.192Z,101963.89
2018-08-03T07:42:23.687Z,101961.55
2018-08-03T07:45:48.206Z,101964.98
2018-08-03T07:49:12.645Z,101971.83
2018-08-03T07:52:37.199Z,101968.23
2018-08-03T07:56:01.507Z,101967.70
2018-08-03T07:59:25.953Z,101961.59
2018-08-03T08:02:50.560Z,101961.31
2018-08-03T08:06:15.003Z,101956.71
2018-08-03T08:09:39.559Z,101947.70
2018-08-03T08:13:03.933Z,101946.32
2018-08-03T08:16:28.380Z,101948.77
2018-08-03T08:19:52.848Z,101942.36
2018-08-03T08:23:17.329Z,101944.31
2018-08-03T08:26:41.823Z,101943.88
2018-08-03T08:30:07.230Z,101941.84
2018-08-03T08:33:31.681Z,101938.89
2018-08-03T08:36:56.176Z,101935.95
2018-08-03T08:40:20.576Z,101933.80
2018-08-03T08:43:45.060Z,101929.70
2018-08-03T08:47:10.006Z,101923.92
2018-08-03T08:50:34.467Z,101918.80
2018-08-03T08:53:58.896Z,101921.66
2018-08-03T08:57:23.410Z,101918.00
2018-08-03T09:00:47.864Z,101918.84
2018-08-03T09:04:12.359Z,101914.56
2018-08-03T09:07:36.875Z,101911.41
2018-08-03T09:11:01.261Z,101917.44
2018-08-03T09:14:25.798Z,101918.88
2018-08-03T09:17:50.245Z,101914.38
2018-08-03T09:21:14.792Z,101913.89
2018-08-03T09:24:39.298Z,101906.50
2018-08-03T09:28:03.664Z,101900.89
2018-08-03T09:31:28.139Z,101903.55
2018-08-03T09:34:52.628Z,101901.90
2018-08-03T09:38:17.090Z,101896.49
2018-08-03T09:41:41.535Z,101888.83
2018-08-03T09:45:06.460Z,101891.83
2018-08-03T09:48:30.999Z,101889.38
2018-08-03T09:51:55.476Z,101892.18
2018-08-03T09:55:19.936Z,101895.27
2018-08-03T09:58:44.418Z,101887.02
2018-08-03T10:02:08.928Z,101884.84
2018-08-03T10:05:33.428Z,101877.45
2018-08-03T10:08:57.851Z,101880.25
2018-08-03T10:12:22.263Z,101877.89
2018-08-03T10:15:46.689Z,101876.11
2018-08-03T10:19:11.127Z,101869.20
2018-08-03T10:22:35.556Z,101862.17
2018-08-03T10:25:59.951Z,101865.97
2018-08-03T10:29:24.420Z,101860.06
2018-08-03T10:32:49.207Z,101856.82
2018-08-03T10:36:20.345Z,101853.09
2018-08-03T10:39:44.887Z,101845.45
2018-08-03T10:43:09.339Z,101847.16
2018-08-03T10:46:33.726Z,101832.26
2018-08-03T10:49:58.459Z,101822.58
2018-08-03T10:53:22.919Z,101826.75
2018-08-03T10:56:47.633Z,101825.60
2018-08-03T11:00:22.154Z,101821.78
2018-08-03T11:03:46.605Z,101820.50
2018-08-03T11:07:11.016Z,101818.81
2018-08-03T11:10:36.471Z,101810.81
2018-08-03T11:14:01.019Z,101806.63
2018-08-03T11:17:25.407Z,101809.84
2018-08-03T11:20:49.918Z,101802.47
2018-08-03T11:24:15.997Z,101795.44
2018-08-03T11:27:40.596Z,101796.67
2018-08-03T11:31:06.558Z,101794.23
2018-08-03T11:34:31.767Z,101789.80
2018-08-03T11:37:56.716Z,101785.38
2018-08-03T11:41:22.894Z,101783.30
2018-08-03T11:44:48.463Z,101778.09
2018-08-03T11:48:12.844Z,101776.16
2018-08-03T11:51:38.016Z,101769.63
2018-08-03T11:55:03.300Z,101765.95
2018-08-03T11:58:27.916Z,101768.23
2018-08-03T12:01:52.396Z,101763.04
2018-08-03T12:05:16.832Z,101759.18
2018-08-03T12:08:41.253Z,101755.98
2018-08-03T12:12:05.714Z,101750.98
2018-08-03T12:15:30.308Z,101752.11
2018-08-03T12:18:54.747Z,101747.59
2018-08-03T12:22:19.848Z,101738.23
2018-08-03T12:25:44.510Z,101740.16
2018-08-03T12:29:08.909Z,101744.70
2018-08-03T12:32:33.368Z,101737.77
2018-08-03T12:35:57.780Z,101733.99
2018-08-03T12:39:22.307Z,101730.77
2018-08-03T12:42:46.786Z,101730.89
2018-08-03T12:46:11.219Z,101725.84
2018-08-03T12:49:35.724Z,101723.16
2018-08-03T12:53:00.213Z,101727.24
2018-08-03T12:56:24.900Z,101719.70
2018-08-03T12:59:49.342Z,101718.73
2018-08-03T13:03:13.755Z,101713.55
2018-08-03T13:06:39.645Z,101709.94
2018-08-03T13:10:03.828Z,101720.38
2018-08-03T13:13:28.199Z,101723.30
2018-08-03T13:16:52.621Z,101712.84
2018-08-03T13:20:16.743Z,101711.95
2018-08-03T13:23:53.360Z,101705.34
2018-08-03T13:27:18.205Z,101700.48
2018-08-03T13:30:42.630Z,101695.82
2018-08-03T13:34:07.209Z,101683.64
2018-08-03T13:37:31.667Z,101685.34
2018-08-03T13:40:56.098Z,101679.75
2018-08-03T13:44:20.506Z,101675.50
2018-08-03T13:47:44.928Z,101669.53
2018-08-03T13:51:09.353Z,101666.98
2018-08-03T13:54:33.793Z,101671.45
2018-08-03T13:57:58.290Z,101664.16
2018-08-03T14:01:44.394Z,101656.13
2018-08-03T14:05:10.238Z,101652.19
2018-08-03T14:08:35.023Z,101648.88
2018-08-03T14:11:59.467Z,101648.75
2018-08-03T14:15:23.671Z,101645.19
2018-08-03T14:18:48.324Z,101645.14
2018-08-03T14:22:12.925Z,101631.89
2018-08-03T14:25:37.241Z,101629.58
2018-08-03T14:29:01.641Z,101627.34
2018-08-03T14:32:26.077Z,101623.80
2018-08-03T14:35:50.507Z,101621.78
2018-08-03T14:39:14.937Z,101620.44
2018-08-03T14:42:39.354Z,101620.39
2018-08-03T14:46:03.770Z,101614.91
2018-08-03T14:49:28.160Z,101604.27
2018-08-03T14:52:52.636Z,101604.97
2018-08-03T14:56:17.068Z,101612.30
2018-08-03T14:59:41.467Z,101613.98
2018-08-03T15:03:05.937Z,101615.42
2018-08-03T15:06:30.360Z,101608.38
2018-08-03T15:09:55.462Z,101608.51
2018-08-03T15:13:19.875Z,101596.88
2018-08-03T15:16:44.288Z,101589.80
2018-08-03T15:20:09.658Z,101592.55
2018-08-03T15:23:34.068Z,101591.31
2018-08-03T15:26:58.467Z,101588.84
2018-08-03T15:30:22.926Z,101585.92
2018-08-03T15:33:47.354Z,101584.88
2018-08-03T15:37:11.787Z,101588.72
2018-08-03T15:40:36.306Z,101579.28
2018-08-03T15:44:00.847Z,101583.84
2018-08-03T15:47:25.387Z,101577.83
2018-08-03T15:50:49.770Z,101581.29
2018-08-03T15:54:14.169Z,101576.39
2018-08-03T15:57:38.558Z,101576.13
2018-08-03T16:01:02.956Z,101562.09
2018-08-03T16:04:27.386Z,101568.92
2018-08-03T16:07:51.783Z,101565.81
2018-08-03T16:11:16.180Z,101561.38
2018-08-03T16:14:40.630Z,101562.95
2018-08-03T16:18:05.747Z,101562.62
2018-08-03T16:21:30.126Z,101553.19
2018-08-03T16:24:54.583Z,101552.41
2018-08-03T16:28:18.983Z,101550.05
2018-08-03T16:31:43.439Z,101553.08
2018-08-03T16:35:09.027Z,101544.36
2018-08-03T16:38:33.433Z,101543.62
2018-08-03T16:41:57.878Z,101539.61
2018-08-03T16:45:22.384Z,101535.98
2018-08-03T16:48:46.787Z,101539.78
2018-08-03T16:52:11.242Z,101537.97
2018-08-03T16:55:35.638Z,101540.74
2018-08-03T16:59:00.123Z,101535.13
2018-08-03T17:02:24.528Z,101536.41
2018-08-03T17:06:08.750Z,101536.59
2018-08-03T17:09:33.227Z,101548.88
2018-08-03T17:12:57.641Z,101542.20
2018-08-03T17:16:22.093Z,101543.13
2018-08-03T17:19:46.487Z,101540.60
2018-08-03T17:23:10.925Z,101544.30
2018-08-03T17:26:35.359Z,101545.34
2018-08-03T17:29:59.819Z,101541.63
2018-08-03T17:33:24.812Z,101540.59
2018-08-03T17:36:52.614Z,101539.96
2018-08-03T17:40:17.600Z,101546.38
2018-08-03T17:43:42.074Z,101547.38
2018-08-03T17:47:06.481Z,101550.08
2018-08-03T17:50:30.905Z,101540.36
2018-08-03T17:53:55.400Z,101540.33
2018-08-03T17:57:19.949Z,101538.64
2018-08-03T18:00:44.558Z,101537.23
2018-08-03T18:04:09.050Z,101539.77
2018-08-03T18:07:33.585Z,101541.83
2018-08-03T18:10:58.788Z,101539.69
2018-08-03T18:14:23.206Z,101531.89
2018-08-03T18:17:47.324Z,101540.09
2018-08-03T18:21:11.736Z,101535.83
2018-08-03T18:24:36.465Z,101541.72
2018-08-03T18:28:01.136Z,101545.27
2018-08-03T18:31:25.628Z,101532.17
2018-08-03T18:34:50.068Z,101532.61
2018-08-03T18:38:14.518Z,101539.06
2018-08-03T18:41:39.157Z,101537.71
2018-08-03T18:45:03.709Z,101531.24
2018-08-03T18:48:28.330Z,101528.56
2018-08-03T18:51:52.875Z,101536.06
2018-08-03T18:55:17.364Z,101536.62
2018-08-03T18:58:41.810Z,101535.01
2018-08-03T19:02:06.461Z,101538.50
2018-08-03T19:05:30.892Z,101544.78
2018-08-03T19:08:55.327Z,101547.80
2018-08-03T19:12:19.771Z,101548.42
2018-08-03T19:15:44.249Z,101546.78
2018-08-03T19:19:08.667Z,101550.61
2018-08-03T19:22:33.089Z,101545.87
2018-08-03T19:25:57.578Z,101556.22
2018-08-03T19:29:22.966Z,101563.14
2018-08-03T19:32:48.388Z,101557.48
2018-08-03T19:36:13.456Z,101566.94
2018-08-03T19:39:39.668Z,101571.28
2018-08-03T19:43:04.273Z,101577.25
2018-08-03T19:46:29.363Z,101579.96
2018-08-03T19:49:55.512Z,101586.58
2018-08-03T19:53:21.265Z,101587.40
2018-08-03T19:56:46.030Z,101590.73
2018-08-03T20:00:13.783Z,101598.42
2018-08-03T20:03:39.759Z,101595.91
2018-08-03T20:07:04.435Z,101600.44
2018-08-03T20:10:30.685Z,101601.97
2018-08-03T20:13:55.188Z,101601.58
2018-08-03T20:17:19.699Z,101605.92
2018-08-03T20:20:45.567Z,101608.30
2018-08-03T20:24:11.188Z,101604.34
2018-08-03T20:27:37.934Z,101605.38
2018-08-03T20:31:04.095Z,101603.52
2018-08-03T20:34:29.558Z,101611.72
2018-08-03T20:37:53.995Z,101612.81
2018-08-03T20:41:19.574Z,101610.30
2018-08-03T20:44:45.107Z,101614.78
2018-08-03T20:48:10.068Z,101614.44
2018-08-03T20:51:35.443Z,101604.60
2018-08-03T20:55:01.196Z,101611.17
2018-08-03T20:58:28.575Z,101615.77
2018-08-03T21:01:56.043Z,101618.98
2018-08-03T21:05:21.947Z,101624.23
2018-08-03T21:08:47.403Z,101623.58
2018-08-03T21:12:12.706Z,101620.16
2018-08-03T21:15:39.604Z,101620.05
2018-08-03T21:19:04.866Z,101620.03
2018-08-03T21:22:29.325Z,101618.23
2018-08-03T21:25:53.752Z,101611.36
2018-08-03T21:29:18.177Z,101613.73
2018-08-03T21:32:42.705Z,101613.40
2018-08-03T21:36:07.239Z,101623.11
2018-08-03T21:39:31.635Z,101619.28
2018-08-03T21:42:56.026Z,101618.11
2018-08-03T21:46:20.472Z,101617.67
2018-08-03T21:49:44.923Z,101610.52
2018-08-03T21:53:09.364Z,101606.77
2018-08-03T21:56:34.437Z,101605.80
2018-08-03T21:59:59.006Z,101613.41
2018-08-03T22:03:24.758Z,101608.06
2018-08-03T22:06:55.390Z,101605.71
2018-08-03T22:10:24.906Z,101602.06
2018-08-03T22:13:49.378Z,101600.52
2018-08-03T22:17:13.823Z,101595.38
2018-08-03T22:20:38.307Z,101598.70
2018-08-03T22:24:02.753Z,101606.73
2018-08-03T22:27:27.227Z,101601.16
2018-08-03T22:30:52.325Z,101605.43
2018-08-03T22:34:16.768Z,101607.36
2018-08-03T22:37:41.198Z,101603.48
2018-08-03T22:41:09.497Z,101594.36
2018-08-03T22:44:37.600Z,101599.19
2018-08-03T22:48:02.077Z,101599.40
2018-08-03T22:51:28.617Z,101593.22
2018-08-03T22:55:02.765Z,101597.79
2018-08-03T22:58:27.588Z,101594.19
2018-08-03T23:01:52.009Z,101588.84
2018-08-03T23:05:16.750Z,101586.64
2018-08-03T23:08:41.209Z,101586.14
2018-08-03T23:12:07.871Z,101590.08
2018-08-03T23:15:32.301Z,101597.20
2018-08-03T23:18:56.700Z,101602.25
2018-08-03T23:22:22.344Z,101609.00
2018-08-03T23:25:46.923Z,101602.77
2018-08-03T23:29:13.065Z,101599.81
2018-08-03T23:32:40.034Z,101595.86
2018-08-03T23:36:04.686Z,101601.41
2018-08-03T23:39:29.189Z,101601.52
2018-08-03T23:42:57.314Z,101599.70
2018-08-03T23:46:21.756Z,101602.06
2018-08-03T23:49:46.289Z,101605.11
2018-08-03T23:53:10.760Z,101603.81
2018-08-03T23:56:35.208Z,101600.48
2018-08-03T23:59:59.616Z,101597.62
